»·PEaware :: PRD69 KLAS-KOXR

PRD69 :: KLAS-KOXR

FLIGHT INFORMATION

Flight Status: Arrived
Operator: Unknown
More flights by this operator :: More flights under this callsign
Pilot: Ryan B. (8502)
Aircraft: CESSNA 510 CITATION MUSTANG
(C510)
More flights by this aircraft type
Origin: KLAS McCarran Intl
United States
Destination: KOXR Oxnard
United States
More flights between these airports :: More routes between these airports
Route: +BOACH8 WHIGG KREME GUERA2
File this flight plan on PilotEdge
Remarks:
Altitude:
(Current/Filed)
20,000ft
Speed:
(Current/Filed)
250kts
Departed: 24-Mar-20 01:10 PM
Arrived: 24-Mar-20 02:10 PM
Distance/Time
Traveled:
229nm/0:59
Distance/Time
To Go:
Arrived

Flight Plot

Page will automatically refresh every two minutes.

Flight plan parsing failed; only flown route is shown


Map Options




Map Legend


Flown Route
Filed Route
Departure Airport
Arrival Airport
Navaid (VOR, NDB)
Fix

Horizontal Profiles

Position Reports

Time Latitude Longitude Heading Altitude Ground
Speed
24-Mar-20 12:53 36.080476 -115.170647 269 2170ft 0kts
24-Mar-20 12:54 36.080476 -115.170647 269 2170ft 0kts
24-Mar-20 12:55 36.080476 -115.170647 269 2170ft 0kts
24-Mar-20 12:56 36.080476 -115.170647 269 2170ft 0kts
24-Mar-20 12:57 36.080476 -115.170647 269 2170ft 0kts
24-Mar-20 12:58 36.080476 -115.170647 269 2170ft 0kts
24-Mar-20 12:59 36.080476 -115.170647 269 2170ft 0kts
24-Mar-20 13:00 36.080476 -115.170647 269 2170ft 0kts
24-Mar-20 13:01 36.080476 -115.170647 269 2170ft 0kts
24-Mar-20 13:02 36.080476 -115.170647 269 2170ft 0kts
24-Mar-20 13:03 36.080476 -115.170647 269 2170ft 0kts
24-Mar-20 13:04 36.080476 -115.170647 269 2170ft 0kts
24-Mar-20 13:05 36.081590 -115.169204 50 2165ft 18kts
24-Mar-20 13:06 36.088847 -115.164966 25 2136ft 40kts
24-Mar-20 13:07 36.098012 -115.159721 24 2097ft 21kts
24-Mar-20 13:08 36.099885 -115.157411 80 2086ft 2kts
24-Mar-20 13:09 36.085597 -115.165245 204 2615ft 130kts
24-Mar-20 13:10 36.043084 -115.188905 203 4952ft 198kts
24-Mar-20 13:11 35.998489 -115.228507 241 7751ft 221kts
24-Mar-20 13:12 35.974379 -115.293946 233 10950ft 208kts
24-Mar-20 13:13 35.922127 -115.318026 174 13589ft 224kts
24-Mar-20 13:14 35.862056 -115.314031 193 16010ft 218kts
24-Mar-20 13:15 35.799964 -115.308013 185 18192ft 228kts
24-Mar-20 13:16 35.732992 -115.300894 185 19238ft 263kts
24-Mar-20 13:17 35.658545 -115.295549 191 20133ft 273kts
24-Mar-20 13:18 35.578576 -115.298897 190 20119ft 298kts
24-Mar-20 13:19 35.494170 -115.302132 190 20108ft 306kts
24-Mar-20 13:20 35.408671 -115.305419 190 20097ft 308kts
24-Mar-20 13:21 35.341130 -115.346419 243 20104ft 288kts
24-Mar-20 13:22 35.301957 -115.431612 238 20094ft 287kts
24-Mar-20 13:23 35.261036 -115.515287 238 20092ft 287kts
24-Mar-20 13:24 35.220247 -115.599522 238 20091ft 287kts
24-Mar-20 13:25 35.179262 -115.684160 238 20109ft 287kts
24-Mar-20 13:26 35.138451 -115.768413 238 20128ft 288kts
24-Mar-20 13:27 35.097614 -115.852536 238 20133ft 289kts
24-Mar-20 13:28 35.056609 -115.936779 238 20124ft 289kts
24-Mar-20 13:29 35.015288 -116.021303 238 20129ft 289kts
24-Mar-20 13:30 34.973948 -116.105606 239 20142ft 291kts
24-Mar-20 13:31 34.932367 -116.190396 239 20153ft 293kts
24-Mar-20 13:32 34.895447 -116.279052 244 20152ft 295kts
24-Mar-20 13:33 34.861023 -116.367554 245 20136ft 298kts
24-Mar-20 13:34 34.825551 -116.458829 245 20125ft 299kts
24-Mar-20 13:35 34.789995 -116.550180 246 20123ft 299kts
24-Mar-20 13:36 34.778578 -116.650187 260 20122ft 301kts
24-Mar-20 13:37 34.768535 -116.752954 260 20133ft 301kts
24-Mar-20 13:38 34.758515 -116.854610 260 20131ft 302kts
24-Mar-20 13:39 34.748282 -116.955950 260 20137ft 301kts
24-Mar-20 13:40 34.737982 -117.057159 260 20147ft 300kts
24-Mar-20 13:41 34.727708 -117.157639 260 20154ft 299kts
24-Mar-20 13:42 34.717362 -117.258084 260 20153ft 299kts
24-Mar-20 13:43 34.706934 -117.358336 260 20152ft 298kts
24-Mar-20 13:44 34.696349 -117.458673 260 19139ft 306kts
24-Mar-20 13:45 34.685948 -117.557199 260 19127ft 285kts
24-Mar-20 13:46 34.675682 -117.653205 260 18017ft 308kts
24-Mar-20 13:47 34.664230 -117.760185 261 15616ft 319kts
24-Mar-20 13:48 34.652982 -117.865590 261 13940ft 308kts
24-Mar-20 13:49 34.642008 -117.967012 261 13961ft 298kts
24-Mar-20 13:50 34.630619 -118.067073 257 12976ft 304kts
24-Mar-20 13:51 34.608817 -118.165039 254 11478ft 318kts
24-Mar-20 13:52 34.589338 -118.253148 254 9897ft 306kts
24-Mar-20 13:54 34.574290 -118.321045 253 8628ft 230kts
24-Mar-20 13:55 34.547716 -118.402072 245 8014ft 217kts
24-Mar-20 13:56 34.517063 -118.479441 246 7151ft 246kts
24-Mar-20 13:57 34.489577 -118.548110 246 7136ft 213kts
24-Mar-20 13:58 34.467034 -118.604440 246 7138ft 205kts
24-Mar-20 13:59 34.448659 -118.650174 246 7136ft 202kts
24-Mar-20 14:00 34.430011 -118.696024 242 7137ft 202kts
24-Mar-20 14:01 34.398291 -118.724263 213 7145ft 207kts
24-Mar-20 14:02 34.348682 -118.762627 215 6404ft 236kts
24-Mar-20 14:03 34.268887 -118.822931 212 5002ft 224kts
24-Mar-20 14:04 34.232789 -118.886788 261 4936ft 199kts
24-Mar-20 14:05 34.223725 -118.955396 261 4067ft 209kts
24-Mar-20 14:06 34.215028 -119.022882 261 3101ft 194kts
24-Mar-20 14:07 34.206930 -119.085441 261 2244ft 182kts
24-Mar-20 14:08 34.201360 -119.139305 265 1339ft 139kts
24-Mar-20 14:09 34.200585 -119.178503 270 461ft 97kts
24-Mar-20 14:10 34.200786 -119.206198 271 38ft 19kts

Navigation Log

Ident Type
Flight plan parsing failed, navigation log unavailable